Hyundai Republic — A8IL3 — position and weather

sailwx.info

Track history (hours):
 
Tides and Currents Weather Stations Pressure Air Temp Water Temp Dewpoint Dewpoint Depression Visibility Wind Speed Wind Dir Waves Ship Positions

Hyundai Republic

Last reported at 2016-Jul-20 04:20 UTC. Time now 2016-Jul-23 15:02 UTC.
Position N 31°19' E 121°45'.

Length 305 m; draft 11 m.

Type: Ship (hazmat cat A). MMSI: 636090994.

Date/timePositionNaut miles runAvg speedWind from/ knotsBaromVisibWave heightAir tempDewpointWater temp
2016-Jul-20 04:20N 31°19' E 121°45'5 6.6
2016-Jul-20 03:32N 31°20' E 121°39'0 0.0
2016-Jul-19 18:30N 31°20' E 121°39'0 0.0
2016-Jul-19 15:04N 31°20' E 121°39'1 2.1
2016-Jul-19 14:33N 31°21' E 121°40'10 9.7
2016-Jul-19 13:33N 31°17' E 121°51'2710.7
2016-Jul-19 11:04N 31°06' E 122°19'37 5.7
2016-Jul-19 04:32N 30°47' E 122°57'11212.0
2016-Jul-18 19:10N 28°55' E 122°47'32715.9
2016-Jul-17 22:33N 24°29' E 119°14'2923.7
2016-Jul-17 21:20N 24°10' E 118°50'2223.4
2016-Jul-17 20:24N 23°56' E 118°31'4122.2
2016-Jul-17 18:33N 23°29' E 117°58'211 7.7
2016-Jul-16 15:13N 22°34' E 114°16'35 5.1
2016-Jul-16 08:28N 22°09' E 113°50'1011.1
2016-Jul-16 07:33N 22°19' E 113°48'5 0.5
2016-Jul-15 20:33N 22°24' E 113°46'1312.7
2016-Jul-15 19:33N 22°12' E 113°50'  
2016-Jul-13 13:28N 29°37' E 122°28'1414.1
2016-Jul-13 12:29N 29°46' E 122°17'910.2
2016-Jul-13 11:33N 29°54' E 122°10'7 5.2
2016-Jul-13 10:16N 29°54' E 122°02'0 0.0
2016-Jul-13 09:16N 29°54' E 122°02'0 0.0
2016-Jul-13 07:21N 29°54' E 122°02'0 0.0
2016-Jul-13 06:27N 29°54' E 122°02'0 0.0
2016-Jul-13 01:22N 29°54' E 122°02'3 3.7
2016-Jul-13 00:33N 29°55' E 122°05'10 9.7
2016-Jul-12 23:32N 29°49' E 122°14'8 8.5
2016-Jul-12 22:33N 29°44' E 122°23'10 9.8
2016-Jul-12 21:33N 29°45' E 122°34'10 9.0
2016-Jul-12 20:24N 29°49' E 122°45'  
Track history (hours):
 
Tides and Currents Weather Stations Pressure Air Temp Water Temp Dewpoint Dewpoint Depression Visibility Wind Speed Wind Dir Waves Ship Positions

Hyundai Republic

Last reported at 2016-Jul-20 04:20 UTC. Time now 2016-Jul-23 15:02 UTC.
Position N 31°19' E 121°45'.

Length 305 m; draft 11 m.

Type: Ship (hazmat cat A). MMSI: 636090994.

Date/timePositionNaut miles runAvg speedWind from/ knotsBaromVisibWave heightAir tempDewpointWater temp
2016-Jul-20 04:20N 31°19' E 121°45'5 6.6
2016-Jul-20 03:32N 31°20' E 121°39'0 0.0
2016-Jul-19 18:30N 31°20' E 121°39'0 0.0
2016-Jul-19 15:04N 31°20' E 121°39'1 2.1
2016-Jul-19 14:33N 31°21' E 121°40'10 9.7
2016-Jul-19 13:33N 31°17' E 121°51'2710.7
2016-Jul-19 11:04N 31°06' E 122°19'37 5.7
2016-Jul-19 04:32N 30°47' E 122°57'11212.0
2016-Jul-18 19:10N 28°55' E 122°47'32715.9
2016-Jul-17 22:33N 24°29' E 119°14'2923.7
2016-Jul-17 21:20N 24°10' E 118°50'2223.4
2016-Jul-17 20:24N 23°56' E 118°31'4122.2
2016-Jul-17 18:33N 23°29' E 117°58'211 7.7
2016-Jul-16 15:13N 22°34' E 114°16'35 5.1
2016-Jul-16 08:28N 22°09' E 113°50'1011.1
2016-Jul-16 07:33N 22°19' E 113°48'5 0.5
2016-Jul-15 20:33N 22°24' E 113°46'1312.7
2016-Jul-15 19:33N 22°12' E 113°50'  
2016-Jul-13 13:28N 29°37' E 122°28'1414.1
2016-Jul-13 12:29N 29°46' E 122°17'910.2
2016-Jul-13 11:33N 29°54' E 122°10'7 5.2
2016-Jul-13 10:16N 29°54' E 122°02'0 0.0
2016-Jul-13 09:16N 29°54' E 122°02'0 0.0
2016-Jul-13 07:21N 29°54' E 122°02'0 0.0
2016-Jul-13 06:27N 29°54' E 122°02'0 0.0
2016-Jul-13 01:22N 29°54' E 122°02'3 3.7
2016-Jul-13 00:33N 29°55' E 122°05'10 9.7
2016-Jul-12 23:32N 29°49' E 122°14'8 8.5
2016-Jul-12 22:33N 29°44' E 122°23'10 9.8
2016-Jul-12 21:33N 29°45' E 122°34'10 9.0
2016-Jul-12 20:24N 29°49' E 122°45'  

Dump ship's entire track history